Time;durP1;ratioP1;P1;durP2;ratioP2;P2;SDS_P1;SDS_P2;PMS_P1;PMS_P2;Temp;Humidity;BMP_temperature;BMP_pressure;BME280_temperature;BME280_humidity;BME280_pressure;Samples;Min_cycle;Max_cycle;Signal;HPM_P1;HPM_P2
2023/06/14 00:01:48;;;;;;;738.60;665.35;;;;;;;14.12;57.87;101354.16;15622584;28;20072;-49
2023/06/14 00:09:21;;;;;;;697.50;626.05;;;;;;;14.89;55.68;101352.06;15618167;28;20564;-49
2023/06/14 00:16:58;;;;;;;784.83;699.37;;;;;;;14.82;55.85;101359.41;15621112;28;20060;-48
2023/06/14 00:24:31;;;;;;;841.63;748.63;;;;;;;15.03;55.24;101354.41;15627795;28;20056;-48
2023/06/14 00:32:06;;;;;;;843.88;753.17;;;;;;;14.85;55.52;101364.38;15626308;28;20091;-49
2023/06/14 00:39:39;;;;;;;787.20;702.75;;;;;;;14.16;57.74;101372.41;15629056;28;20065;-48
2023/06/14 00:47:13;;;;;;;878.30;750.07;;;;;;;13.78;59.55;101365.16;15622366;28;20034;-48
2023/06/14 00:54:45;;;;;;;791.22;703.10;;;;;;;13.58;60.58;101364.44;15622472;28;20510;-48
2023/06/14 01:02:20;;;;;;;1039.22;770.33;;;;;;;14.10;59.04;101361.66;15617860;28;20421;-51
2023/06/14 01:10:08;;;;;;;772.83;683.17;;;;;;;13.49;61.70;101368.44;15619299;28;20072;-48
2023/06/14 01:17:46;;;;;;;636.50;579.05;;;;;;;13.41;62.64;101361.41;15606214;28;20072;-50
2023/06/14 01:25:28;;;;;;;37.17;35.15;;;;;;;13.49;63.08;101366.56;15614424;28;20490;-52
2023/06/14 01:33:01;;;;;;;1.95;1.23;;;;;;;13.26;63.60;101331.19;15619633;28;20042;-50
2023/06/14 01:40:37;;;;;;;1.55;1.08;;;;;;;13.71;62.89;101358.16;15629323;28;20119;-50
2023/06/14 01:48:13;;;;;;;1.80;1.15;;;;;;;13.31;64.49;101358.34;15616963;28;20042;-49
2023/06/14 01:55:48;;;;;;;2.30;1.33;;;;;;;13.28;64.90;101356.06;15604334;28;20056;-48
2023/06/14 02:03:21;;;;;;;5.50;1.50;;;;;;;13.49;64.55;101357.63;15596780;28;20099;-48
2023/06/14 02:10:56;;;;;;;4.70;1.80;;;;;;;13.20;65.31;101354.41;15616666;28;20046;-48
2023/06/14 02:18:29;;;;;;;2.00;1.55;;;;;;;12.92;66.30;101356.56;15613455;28;20593;-51
2023/06/14 02:26:04;;;;;;;2.17;1.50;;;;;;;13.03;65.68;101363.97;15615749;28;20059;-49
2023/06/14 02:33:36;;;;;;;3.47;1.75;;;;;;;13.24;65.21;101371.84;15618610;28;20124;-48
2023/06/14 02:41:11;;;;;;;3.08;1.50;;;;;;;13.29;64.73;101373.91;15623140;28;20132;-49
2023/06/14 02:48:44;;;;;;;1.52;1.20;;;;;;;12.81;66.96;101368.78;15615781;28;20096;-48
2023/06/14 02:56:19;;;;;;;3.13;1.60;;;;;;;12.82;67.15;101370.44;15608944;28;20049;-47
2023/06/14 03:03:53;;;;;;;2.17;1.10;;;;;;;12.87;66.93;101375.19;15611410;28;20107;-49
2023/06/14 03:11:27;;;;;;;4.93;1.80;;;;;;;12.97;67.06;101376.44;15615111;28;20064;-49
2023/06/14 03:19:00;;;;;;;3.67;1.52;;;;;;;12.77;67.82;101373.75;15621161;28;20049;-48
2023/06/14 03:26:38;;;;;;;3.97;1.27;;;;;;;12.99;67.55;101378.91;15622331;28;20061;-46
2023/06/14 03:34:12;;;;;;;6.07;1.73;;;;;;;12.64;68.78;101397.22;15622152;28;20034;-46
2023/06/14 03:41:48;;;;;;;3.53;2.22;;;;;;;12.96;67.88;101399.03;15617661;28;20046;-47
2023/06/14 03:49:21;;;;;;;3.67;1.88;;;;;;;13.19;67.32;101398.56;15624035;28;20076;-47
2023/06/14 03:56:56;;;;;;;3.38;1.80;;;;;;;13.22;67.19;101389.25;15599017;23;20061;-55
2023/06/14 04:04:29;;;;;;;5.53;2.33;;;;;;;13.20;67.61;101405.63;15560206;28;20041;-53
2023/06/14 04:12:08;;;;;;;3.60;2.13;;;;;;;13.51;66.94;101413.00;15563277;28;20525;-51
2023/06/14 04:19:42;;;;;;;2.75;1.80;;;;;;;13.90;65.74;101405.78;15559757;28;20038;-53
2023/06/14 04:27:21;;;;;;;3.75;1.90;;;;;;;13.91;65.39;101410.16;15557747;28;20056;-54
2023/06/14 04:34:54;;;;;;;3.63;1.95;;;;;;;14.10;64.92;101418.34;15555280;28;20206;-51
2023/06/14 04:42:32;;;;;;;3.03;1.88;;;;;;;14.22;64.65;101424.69;15563858;28;20076;-54
2023/06/14 04:50:07;;;;;;;3.03;1.80;;;;;;;14.59;63.74;101420.31;15560064;28;20123;-54
2023/06/14 04:57:41;;;;;;;3.75;1.20;;;;;;;14.68;63.09;101416.28;15563276;28;20169;-53
2023/06/14 05:05:15;;;;;;;2.85;1.73;;;;;;;15.08;62.13;101420.50;15545425;28;20046;-55
2023/06/14 05:12:52;;;;;;;3.67;1.52;;;;;;;15.79;59.64;101425.34;15551231;28;20388;-54
2023/06/14 05:20:26;;;;;;;3.65;1.80;;;;;;;15.88;59.18;101421.25;15551401;28;20052;-53
2023/06/14 05:28:00;;;;;;;3.17;1.60;;;;;;;16.05;57.66;101432.28;15554850;28;20399;-54
2023/06/14 05:35:33;;;;;;;5.22;2.53;;;;;;;15.77;58.70;101441.00;15553307;28;20125;-57
2023/06/14 05:43:08;;;;;;;;;;;;;;;16.08;58.47;101442.66;15575426;28;20041;-55
2023/06/14 05:50:44;;;;;;;2.47;1.52;;;;;;;16.26;56.44;101434.47;15559700;28;20161;-54
2023/06/14 05:58:18;;;;;;;3.70;2.10;;;;;;;16.19;56.16;101444.59;15546698;28;20087;-60
2023/06/14 06:05:51;;;;;;;2.00;1.48;;;;;;;16.21;55.72;101452.47;15548157;28;20064;-56
2023/06/14 06:13:25;;;;;;;4.47;1.67;;;;;;;16.40;54.72;101453.25;15558623;28;20472;-56
2023/06/14 06:20:58;;;;;;;4.50;1.88;;;;;;;16.68;54.23;101445.28;15553726;28;20142;-55
2023/06/14 06:28:33;;;;;;;2.95;1.42;;;;;;;16.71;53.27;101447.53;15553968;28;20471;-52
2023/06/14 06:36:06;;;;;;;6.55;3.67;;;;;;;16.78;53.39;101464.53;15567367;28;20131;-56
2023/06/14 06:43:40;;;;;;;3.08;1.90;;;;;;;17.09;54.03;101471.53;15587635;28;20053;-56
2023/06/14 06:51:15;;;;;;;3.00;1.20;;;;;;;16.98;53.59;101464.22;15568459;28;20398;-55
2023/06/14 06:58:50;;;;;;;4.75;1.35;;;;;;;16.96;53.82;101466.34;15569422;28;20056;-53
2023/06/14 07:06:27;;;;;;;2.92;1.73;;;;;;;17.33;54.10;101477.78;15565582;28;20065;-52
2023/06/14 07:14:01;;;;;;;5.38;2.35;;;;;;;17.01;54.21;101492.75;15577365;28;20057;-56
2023/06/14 07:21:34;;;;;;;2.40;1.48;;;;;;;17.56;54.12;101495.94;15549851;28;20073;-54
2023/06/14 07:29:08;;;;;;;3.00;1.88;;;;;;;18.06;52.30;101503.53;15566248;28;20046;-53
2023/06/14 07:36:40;;;;;;;3.00;1.50;;;;;;;18.79;50.32;101501.06;15576809;28;20146;-53
2023/06/14 07:44:15;;;;;;;3.85;2.05;;;;;;;19.63;48.46;101495.56;15576849;28;20049;-53
2023/06/14 07:51:49;;;;;;;3.35;2.08;;;;;;;19.40;47.89;101493.88;15553682;28;20073;-52
2023/06/14 07:59:25;;;;;;;5.50;1.85;;;;;;;19.85;48.43;101501.84;15554375;28;20054;-53
2023/06/14 08:06:58;;;;;;;1.83;1.17;;;;;;;20.25;48.13;101481.59;15567476;28;20046;-56
2023/06/14 08:14:32;;;;;;;4.88;1.33;;;;;;;19.41;48.55;101483.81;15564090;28;20410;-53
2023/06/14 08:22:05;;;;;;;3.67;1.83;;;;;;;19.45;48.77;101479.50;15565917;28;20045;-54
2023/06/14 08:29:41;;;;;;;3.25;1.48;;;;;;;19.43;49.39;101487.09;15562306;28;20050;-54
2023/06/14 08:37:14;;;;;;;3.50;1.60;;;;;;;19.04;48.81;101497.94;15552983;28;20128;-53
2023/06/14 08:44:48;;;;;;;;;;;;;;;18.78;49.49;101494.81;15556483;28;20454;-53
2023/06/14 08:52:22;;;;;;;2.97;1.40;;;;;;;18.81;49.62;101485.34;15577303;28;19929;-53
2023/06/14 09:00:01;;;;;;;5.43;1.42;;;;;;;19.68;48.58;101482.03;15555957;28;20049;-52
2023/06/14 09:07:34;;;;;;;2.42;1.30;;;;;;;20.63;44.69;101483.34;15581372;28;20139;-55
2023/06/14 09:15:09;;;;;;;;;;;;;;;21.78;44.16;101490.16;15589486;28;20034;-51
2023/06/14 09:22:42;;;;;;;2.35;1.13;;;;;;;21.65;41.89;101489.53;15593361;28;19944;-53
2023/06/14 09:30:21;;;;;;;4.25;1.60;;;;;;;21.29;42.69;101495.88;15581383;28;20060;-55
2023/06/14 09:37:56;;;;;;;1.65;0.93;;;;;;;21.29;42.97;101491.22;15556207;28;20049;-55
2023/06/14 09:45:31;;;;;;;1.98;0.90;;;;;;;21.75;42.59;101486.03;15579328;28;20045;-54
2023/06/14 09:53:07;;;;;;;1.75;1.38;;;;;;;21.24;42.45;101493.91;15585065;28;20041;-50
2023/06/14 10:00:43;;;;;;;1.85;1.23;;;;;;;21.06;43.60;101497.06;15573150;28;20042;-53
2023/06/14 10:08:19;;;;;;;2.70;1.42;;;;;;;21.10;43.40;101487.28;15573628;28;20104;-52
2023/06/14 10:16:06;;;;;;;1.92;1.13;;;;;;;21.31;43.54;101483.63;15578130;28;20515;-52
2023/06/14 10:23:43;;;;;;;7.05;1.48;;;;;;;21.39;42.75;101474.09;15573310;28;20470;-52
2023/06/14 10:31:17;;;;;;;2.05;1.17;;;;;;;22.31;41.03;101469.84;15574609;28;20147;-53
2023/06/14 10:38:58;;;;;;;2.65;1.17;;;;;;;22.09;41.40;101463.72;15572797;28;20060;-52
2023/06/14 10:46:35;;;;;;;3.60;1.17;;;;;;;22.83;40.43;101470.69;15577978;28;20048;-50
2023/06/14 10:54:13;;;;;;;2.38;1.13;;;;;;;23.07;38.26;101462.75;15570416;28;20343;-52
2023/06/14 11:01:59;;;;;;;2.70;1.35;;;;;;;22.99;39.43;101466.03;15573864;28;20081;-51
2023/06/14 11:10:11;;;;;;;2.33;1.60;;;;;;;22.54;39.79;101456.72;15570455;28;20038;-52
2023/06/14 11:17:53;;;;;;;2.75;1.48;;;;;;;21.96;40.58;101453.31;15573665;28;20337;-50
2023/06/14 11:25:27;;;;;;;0.83;0.70;;;;;;;21.86;39.38;101446.72;15579249;28;20046;-53
2023/06/14 11:33:02;;;;;;;2.67;1.40;;;;;;;23.00;38.93;101427.44;15584935;28;20418;-51
2023/06/14 11:40:38;;;;;;;6.45;3.15;;;;;;;22.95;38.59;101424.72;15590070;28;20477;-51
2023/06/14 11:48:15;;;;;;;2.75;1.00;;;;;;;23.51;37.75;101410.03;15593547;28;20099;-50
2023/06/14 11:55:48;;;;;;;2.58;0.98;;;;;;;24.62;35.37;101404.94;15584589;28;20038;-53
2023/06/14 12:03:27;;;;;;;2.03;1.08;;;;;;;24.87;34.38;101395.66;15560606;28;20488;-49
2023/06/14 12:10:59;;;;;;;5.88;1.77;;;;;;;23.66;36.27;101388.88;15567595;28;20137;-52
2023/06/14 12:18:35;;;;;;;4.00;1.17;;;;;;;23.69;35.62;101384.78;15562713;28;20050;-51
2023/06/14 12:26:08;;;;;;;2.45;1.13;;;;;;;23.64;36.59;101377.41;15562270;28;20100;-51
2023/06/14 12:33:45;;;;;;;2.15;1.30;;;;;;;23.79;35.56;101376.47;15576113;28;20054;-54
2023/06/14 12:41:18;;;;;;;4.97;1.58;;;;;;;23.89;34.58;101384.63;15579127;28;20520;-53
2023/06/14 12:48:54;;;;;;;4.78;2.42;;;;;;;26.36;30.67;101373.38;15571219;28;20461;-52
2023/06/14 12:56:27;;;;;;;2.03;1.23;;;;;;;26.81;29.25;101355.22;15577362;28;20538;-63
2023/06/14 13:04:01;;;;;;;1.88;1.08;;;;;;;26.41;29.78;101365.03;15556542;28;20136;-52
2023/06/14 13:11:35;;;;;;;1.50;0.93;;;;;;;25.80;30.31;101366.81;15570886;28;20136;-53
2023/06/14 13:19:09;;;;;;;2.58;1.20;;;;;;;25.32;30.98;101355.06;15582436;28;20054;-52
2023/06/14 13:26:43;;;;;;;2.55;1.33;;;;;;;26.26;31.07;101337.78;15581752;28;20046;-50
2023/06/14 13:34:21;;;;;;;1.38;1.02;;;;;;;25.49;30.30;101343.59;15584886;28;20049;-52
2023/06/14 13:41:57;;;;;;;1.80;1.13;;;;;;;25.67;29.92;101324.34;15578938;28;20149;-52
2023/06/14 13:49:31;;;;;;;4.10;1.45;;;;;;;24.62;30.88;101319.84;15580774;28;20053;-55
2023/06/14 13:57:04;;;;;;;6.90;1.25;;;;;;;24.90;31.45;101313.53;15560682;28;20487;-49
2023/06/14 14:04:39;;;;;;;2.00;1.20;;;;;;;26.09;29.82;101314.38;15539991;28;20140;-55
2023/06/14 14:12:15;;;;;;;3.72;1.30;;;;;;;24.72;31.02;101302.50;15561070;28;20077;-51
2023/06/14 14:19:50;;;;;;;2.33;1.58;;;;;;;25.98;29.78;101290.91;15548954;28;20128;-53
2023/06/14 14:27:23;;;;;;;2.75;1.27;;;;;;;25.14;30.98;101291.56;15554482;28;20046;-53
2023/06/14 14:34:57;;;;;;;2.17;1.40;;;;;;;24.39;32.76;101297.59;15553703;28;20046;-50
2023/06/14 14:42:31;;;;;;;1.50;1.00;;;;;;;24.18;31.75;101285.94;15560720;28;20048;-53
2023/06/14 14:50:08;;;;;;;2.10;1.20;;;;;;;25.02;31.86;101296.63;15557432;28;20092;-52
2023/06/14 14:57:41;;;;;;;3.58;1.10;;;;;;;25.01;31.29;101281.25;15561851;28;20050;-52
2023/06/14 15:05:15;;;;;;;1.75;1.10;;;;;;;24.74;30.33;101286.53;15556199;28;20073;-55
2023/06/14 15:12:50;;;;;;;5.75;1.50;;;;;;;24.87;31.09;101291.31;15556072;28;20076;-52
2023/06/14 15:20:24;;;;;;;1.70;1.05;;;;;;;24.04;32.07;101292.41;15582591;28;20402;-53
2023/06/14 15:28:01;;;;;;;2.42;1.20;;;;;;;24.01;32.88;101296.50;15587567;28;20048;-50
2023/06/14 15:35:37;;;;;;;1.88;1.00;;;;;;;24.15;31.89;101293.94;15582624;28;20403;-53
2023/06/14 15:43:11;;;;;;;2.15;1.40;;;;;;;23.84;33.59;101302.44;15572865;28;20147;-51
2023/06/14 15:50:46;;;;;;;1.38;0.98;;;;;;;23.39;33.76;101289.81;15583491;28;20037;-50
2023/06/14 15:58:19;;;;;;;1.58;0.93;;;;;;;23.14;34.62;101296.25;15586314;28;20128;-49
2023/06/14 16:05:53;;;;;;;1.90;1.13;;;;;;;22.75;34.03;101291.41;15583973;28;20069;-50
2023/06/14 16:13:26;;;;;;;1.95;1.23;;;;;;;22.74;34.25;101295.25;15586242;28;20065;-51
2023/06/14 16:21:01;;;;;;;1.05;0.85;;;;;;;23.06;34.04;101292.16;15585870;28;20050;-51
2023/06/14 16:28:34;;;;;;;4.28;1.10;;;;;;;23.20;34.11;101289.63;15590702;28;20054;-54
2023/06/14 16:36:08;;;;;;;2.53;0.98;;;;;;;23.30;33.97;101292.31;15577365;28;20129;-49
2023/06/14 16:43:41;;;;;;;1.77;1.00;;;;;;;23.73;33.33;101291.81;15555001;28;20152;-52
2023/06/14 16:51:15;;;;;;;1.75;1.05;;;;;;;22.64;33.99;101296.09;15565302;28;20129;-52
2023/06/14 16:58:48;;;;;;;2.03;1.02;;;;;;;22.65;33.85;101302.38;15558116;28;20133;-49
2023/06/14 17:06:23;;;;;;;3.22;1.20;;;;;;;22.13;34.76;101315.31;15567213;28;20510;-50
2023/06/14 17:13:57;;;;;;;3.40;1.20;;;;;;;21.95;35.21;101320.47;15563045;28;20041;-49
2023/06/14 17:21:31;;;;;;;2.63;1.42;;;;;;;21.91;34.89;101331.94;15566324;28;20061;-50
2023/06/14 17:29:04;;;;;;;2.55;1.10;;;;;;;22.01;35.08;101342.06;15563748;28;20057;-51
2023/06/14 17:36:39;;;;;;;2.53;0.95;;;;;;;22.60;34.82;101327.03;15559478;28;20124;-51
2023/06/14 17:44:13;;;;;;;1.73;0.88;;;;;;;23.00;34.68;101337.09;15555422;28;20094;-49
2023/06/14 17:51:47;;;;;;;6.60;1.17;;;;;;;22.46;35.03;101332.25;15566092;28;20046;-51
2023/06/14 17:59:21;;;;;;;8.55;1.45;;;;;;;22.48;35.71;101346.47;15558526;28;20137;-49
2023/06/14 18:06:56;;;;;;;2.42;1.27;;;;;;;22.05;35.79;101347.78;15559101;28;20590;-49
2023/06/14 18:14:29;;;;;;;2.15;1.08;;;;;;;21.69;36.53;101334.09;15559861;28;20518;-50
2023/06/14 18:22:04;;;;;;;1.73;1.00;;;;;;;21.57;36.49;101317.94;15544743;28;20053;-52
2023/06/14 18:29:37;;;;;;;2.00;1.27;;;;;;;21.96;36.61;101346.69;15554355;28;20054;-54
2023/06/14 18:37:11;;;;;;;2.65;1.05;;;;;;;22.28;36.65;101349.22;15552589;28;20050;-54
2023/06/14 18:44:45;;;;;;;1.50;1.02;;;;;;;22.13;36.97;101339.09;15542967;28;20049;-54
2023/06/14 18:52:20;;;;;;;4.40;0.90;;;;;;;22.34;37.41;101343.47;15532260;28;20099;-56
2023/06/14 18:59:53;;;;;;;2.58;0.80;;;;;;;22.32;36.86;101342.91;15537724;28;20132;-56
2023/06/14 19:07:27;;;;;;;5.75;1.27;;;;;;;22.06;38.26;101353.00;15546747;28;20096;-50
2023/06/14 19:15:00;;;;;;;1.50;0.82;;;;;;;22.15;37.99;101356.88;15563427;28;20069;-52
2023/06/14 19:22:35;;;;;;;5.40;1.17;;;;;;;22.13;38.20;101358.22;15557473;28;20392;-52
2023/06/14 19:30:09;;;;;;;3.80;1.30;;;;;;;21.60;38.65;101358.38;15535415;28;20050;-54
2023/06/14 19:37:44;;;;;;;3.47;1.52;;;;;;;21.74;37.79;101357.88;15550148;28;20138;-54
2023/06/14 19:45:16;;;;;;;2.40;1.35;;;;;;;21.89;38.62;101372.38;15561872;28;20458;-56
2023/06/14 19:52:51;;;;;;;1.70;1.00;;;;;;;21.66;39.60;101364.69;15546962;28;20057;-51
2023/06/14 20:00:23;;;;;;;2.40;1.17;;;;;;;21.76;38.71;101361.16;15543500;28;20137;-52
2023/06/14 20:07:58;;;;;;;4.78;1.40;;;;;;;21.73;39.36;101367.16;15558583;28;20046;-54
2023/06/14 20:15:31;;;;;;;4.05;1.25;;;;;;;21.61;39.91;101375.59;15553171;28;20057;-53
2023/06/14 20:23:05;;;;;;;2.53;1.48;;;;;;;21.43;39.61;101378.81;15557830;28;20427;-50
2023/06/14 20:30:38;;;;;;;1.25;0.70;;;;;;;21.49;40.06;101381.28;15560462;28;20491;-50
2023/06/14 20:38:12;;;;;;;;;;;;;;;21.25;40.32;101380.06;15554772;28;20068;-53
2023/06/14 20:45:46;;;;;;;2.47;1.00;;;;;;;21.35;39.57;101377.41;15556747;28;19932;-54
2023/06/14 20:53:21;;;;;;;2.60;0.95;;;;;;;21.31;40.23;101377.13;15572276;28;20054;-48
2023/06/14 21:00:54;;;;;;;2.17;0.82;;;;;;;21.39;40.09;101384.78;15556096;28;20671;-53
2023/06/14 21:08:28;;;;;;;2.75;1.17;;;;;;;21.31;40.32;101376.28;15562436;28;20530;-52
2023/06/14 21:16:02;;;;;;;1.83;0.98;;;;;;;21.38;40.11;101374.97;15555674;28;20625;-51
2023/06/14 21:23:36;;;;;;;2.38;1.30;;;;;;;21.00;40.44;101373.41;15559059;28;20045;-49
2023/06/14 21:31:11;;;;;;;91.13;33.67;;;;;;;21.06;40.91;101372.31;15554523;28;20141;-55
2023/06/14 21:38:47;;;;;;;2.85;1.48;;;;;;;20.94;41.18;101370.88;15553393;28;20076;-52
2023/06/14 21:46:21;;;;;;;2.17;1.20;;;;;;;20.85;41.70;101374.13;15552585;28;20398;-53
2023/06/14 21:53:55;;;;;;;;;;;;;;;20.98;41.79;101378.28;15558022;28;20136;-56
2023/06/14 22:01:28;;;;;;;2.85;1.65;;;;;;;20.84;41.42;101366.19;15553944;28;19921;-56
2023/06/14 22:09:04;;;;;;;;;;;;;;;20.77;41.67;101371.06;15546871;28;20503;-56
2023/06/14 22:16:37;;;;;;;3.47;1.30;;;;;;;20.68;41.79;101364.47;15544358;28;20016;-53
2023/06/14 22:24:11;;;;;;;7.93;1.52;;;;;;;20.60;42.13;101360.28;15550496;28;20046;-53
2023/06/14 22:31:48;;;;;;;1.85;1.02;;;;;;;20.48;42.54;101351.50;15547300;28;20061;-53
2023/06/14 22:39:23;;;;;;;2.65;1.48;;;;;;;20.33;42.85;101365.78;15547245;28;20140;-53
2023/06/14 22:46:59;;;;;;;1.67;0.85;;;;;;;20.28;42.95;101366.56;15543932;28;20080;-54
2023/06/14 22:54:33;;;;;;;1.85;1.10;;;;;;;20.01;44.03;101369.34;15550545;28;20104;-51
2023/06/14 23:02:08;;;;;;;1.23;1.05;;;;;;;19.79;43.53;101358.47;15550845;28;20046;-50
2023/06/14 23:09:43;;;;;;;12.68;1.52;;;;;;;19.64;43.95;101363.78;15535659;28;20227;-52
2023/06/14 23:17:17;;;;;;;1.55;0.68;;;;;;;19.69;43.98;101355.66;15549465;28;20041;-54
2023/06/14 23:24:51;;;;;;;12.25;1.30;;;;;;;19.48;44.43;101351.84;15552641;28;20520;-53
2023/06/14 23:32:29;;;;;;;1.52;0.77;;;;;;;19.28;45.79;101349.69;15556750;28;20045;-53
2023/06/14 23:40:08;;;;;;;4.32;1.20;;;;;;;19.11;46.04;101335.31;15560427;28;20053;-53
2023/06/14 23:47:43;;;;;;;6.25;1.33;;;;;;;18.93;46.06;101343.78;15555275;28;20066;-54
2023/06/14 23:55:19;;;;;;;2.72;1.20;;;;;;;18.88;45.72;101343.72;15561175;28;20546;-53
